createdAt,value
2023-01-29T00:01:20.283Z,9.63
2023-01-29T00:03:55.564Z,9.67
2023-01-29T00:09:28.173Z,9.53
2023-01-29T00:12:19.869Z,9.90
2023-01-29T00:14:48.672Z,10.07
2023-01-29T00:17:31.467Z,8.20
2023-01-29T00:20:07.336Z,11.07
2023-01-29T00:22:51.282Z,9.67
2023-01-29T00:25:20.921Z,9.00
2023-01-29T00:31:06.325Z,9.23
2023-01-29T00:33:53.812Z,8.50
2023-01-29T00:36:25.679Z,10.10
2023-01-29T00:39:11.100Z,10.50
2023-01-29T00:42:05.543Z,9.43
2023-01-29T00:44:55.712Z,9.30
2023-01-29T00:47:40.392Z,12.00
2023-01-29T00:50:17.697Z,11.70
2023-01-29T00:52:54.042Z,11.60
2023-01-29T00:55:21.962Z,11.67
2023-01-29T00:57:49.976Z,12.07
2023-01-29T01:00:34.198Z,10.57
2023-01-29T01:03:07.635Z,10.87
2023-01-29T01:05:42.248Z,10.73
2023-01-29T01:08:36.637Z,9.07
2023-01-29T01:11:07.798Z,8.37
2023-01-29T01:13:44.339Z,8.83
2023-01-29T01:16:28.158Z,8.30
2023-01-29T01:19:01.081Z,9.10
2023-01-29T01:21:38.641Z,8.73
2023-01-29T01:24:07.475Z,8.40
2023-01-29T01:26:36.549Z,8.13
2023-01-29T01:29:04.618Z,9.33
2023-01-29T01:31:42.178Z,9.00
2023-01-29T01:34:21.771Z,8.93
2023-01-29T01:36:55.654Z,8.10
2023-01-29T01:39:42.275Z,7.17
2023-01-29T01:45:12.005Z,8.37
2023-01-29T01:48:01.188Z,6.83
2023-01-29T01:50:43.272Z,8.57
2023-01-29T01:53:14.420Z,8.47
2023-01-29T01:55:51.698Z,8.13
2023-01-29T02:01:10.832Z,8.40
2023-01-29T02:04:04.343Z,7.73
2023-01-29T02:06:51.843Z,8.10
2023-01-29T02:09:40.341Z,8.60
2023-01-29T02:12:23.048Z,6.53
2023-01-29T02:17:56.286Z,8.30
2023-01-29T02:20:29.121Z,8.17
2023-01-29T02:23:16.064Z,8.80
2023-01-29T02:26:21.989Z,8.47
2023-01-29T02:29:25.606Z,8.67
2023-01-29T02:32:06.720Z,8.13
2023-01-29T02:35:03.362Z,10.10
2023-01-29T02:37:37.860Z,9.30
2023-01-29T02:40:19.225Z,9.40
2023-01-29T02:42:56.837Z,9.57
2023-01-29T02:45:35.359Z,7.93
2023-01-29T02:48:09.758Z,9.17
2023-01-29T02:50:56.682Z,9.17
2023-01-29T02:53:32.322Z,8.80
2023-01-29T02:56:11.552Z,9.50
2023-01-29T02:58:53.261Z,8.80
2023-01-29T03:01:46.807Z,9.07
2023-01-29T03:04:26.744Z,8.63
2023-01-29T03:07:00.385Z,7.97
2023-01-29T03:09:41.043Z,6.90
2023-01-29T03:12:29.366Z,8.87
2023-01-29T03:15:13.230Z,9.63
2023-01-29T03:17:58.985Z,8.13
2023-01-29T03:23:28.042Z,8.73
2023-01-29T03:26:18.069Z,8.93
2023-01-29T03:29:14.237Z,9.90
2023-01-29T03:32:02.681Z,10.37
2023-01-29T03:34:44.791Z,10.73
2023-01-29T03:37:25.866Z,12.07
2023-01-29T03:40:17.132Z,9.97
2023-01-29T03:43:02.972Z,9.87
2023-01-29T03:45:48.177Z,10.53
2023-01-29T03:48:37.191Z,10.40
2023-01-29T03:51:35.412Z,11.33
2023-01-29T03:54:10.908Z,11.07
2023-01-29T03:56:57.261Z,10.97
2023-01-29T03:59:40.087Z,9.47
2023-01-29T04:02:28.431Z,10.33
2023-01-29T04:05:08.637Z,10.20
2023-01-29T04:07:41.494Z,8.20
2023-01-29T04:10:19.897Z,9.10
2023-01-29T04:12:58.273Z,10.23
2023-01-29T04:15:40.596Z,9.57
2023-01-29T04:18:10.041Z,9.43
2023-01-29T04:20:38.667Z,8.77
2023-01-29T04:23:24.830Z,11.10
2023-01-29T04:26:18.877Z,8.17
2023-01-29T04:28:59.828Z,9.47
2023-01-29T04:31:33.673Z,9.33
2023-01-29T04:34:14.558Z,9.13
2023-01-29T04:37:06.121Z,10.77
2023-01-29T04:40:00.392Z,10.30
2023-01-29T04:42:34.590Z,9.37
2023-01-29T04:48:27.078Z,11.07
2023-01-29T04:51:06.746Z,10.10
2023-01-29T04:53:45.220Z,10.70
2023-01-29T04:56:23.391Z,9.07
2023-01-29T04:59:00.142Z,8.63
2023-01-29T05:01:33.720Z,10.93
2023-01-29T05:04:19.900Z,10.00
2023-01-29T05:06:50.791Z,10.03
2023-01-29T05:09:24.957Z,7.63
2023-01-29T05:11:59.094Z,8.37
2023-01-29T05:14:33.781Z,8.77
2023-01-29T05:17:07.265Z,8.93
2023-01-29T05:19:38.628Z,9.47
2023-01-29T05:22:10.203Z,8.60
2023-01-29T05:24:39.166Z,8.07
2023-01-29T05:27:31.127Z,9.47
2023-01-29T05:29:59.231Z,9.30
2023-01-29T05:32:31.521Z,8.57
2023-01-29T05:35:02.684Z,8.63
2023-01-29T05:37:33.648Z,7.20
2023-01-29T05:40:02.181Z,9.70
2023-01-29T05:42:37.448Z,9.00
2023-01-29T05:45:06.975Z,8.23
2023-01-29T05:47:36.849Z,8.27
2023-01-29T05:50:16.094Z,8.83
2023-01-29T05:52:49.189Z,9.97
2023-01-29T05:55:17.307Z,8.13
2023-01-29T05:57:48.123Z,10.13
2023-01-29T06:00:27.835Z,9.37
2023-01-29T06:03:02.151Z,10.83
2023-01-29T06:05:30.919Z,8.27
2023-01-29T06:08:02.687Z,7.50
2023-01-29T06:10:33.323Z,9.77
2023-01-29T06:13:05.121Z,10.70
2023-01-29T06:15:45.282Z,9.60
2023-01-29T06:18:15.520Z,8.90
2023-01-29T06:20:47.188Z,9.33
2023-01-29T06:23:23.209Z,9.00
2023-01-29T06:26:03.325Z,9.80
2023-01-29T06:28:50.893Z,9.80
2023-01-29T06:34:06.636Z,10.27
2023-01-29T06:36:34.543Z,9.70
2023-01-29T06:39:04.640Z,10.50
2023-01-29T06:41:32.508Z,9.43
2023-01-29T06:44:11.675Z,9.23
2023-01-29T06:49:41.461Z,10.53
2023-01-29T06:52:09.334Z,11.87
2023-01-29T06:54:37.289Z,10.80
2023-01-29T06:57:05.715Z,10.87
2023-01-29T06:59:46.192Z,10.67
2023-01-29T07:02:17.334Z,11.30
2023-01-29T07:04:49.850Z,9.40
2023-01-29T07:07:19.484Z,11.10
2023-01-29T07:09:47.840Z,11.83
2023-01-29T07:12:19.748Z,11.37
2023-01-29T07:14:50.556Z,14.47
2023-01-29T07:17:21.268Z,12.30
2023-01-29T07:19:51.710Z,13.53
2023-01-29T07:22:27.952Z,12.63
2023-01-29T07:24:56.456Z,11.87
2023-01-29T07:27:24.848Z,11.33
2023-01-29T07:29:59.084Z,10.33
2023-01-29T07:32:31.752Z,12.07
2023-01-29T07:35:01.877Z,11.00
2023-01-29T07:37:30.398Z,13.57
2023-01-29T07:40:01.201Z,13.13
2023-01-29T07:42:49.517Z,14.67
2023-01-29T07:45:25.896Z,13.87
2023-01-29T07:48:13.921Z,14.60
2023-01-29T07:50:44.847Z,14.13
2023-01-29T07:53:16.415Z,11.67
2023-01-29T07:55:46.555Z,12.73
2023-01-29T07:58:19.827Z,12.50
2023-01-29T08:00:52.732Z,13.17
2023-01-29T08:03:23.924Z,12.67
2023-01-29T08:05:56.807Z,15.07
2023-01-29T08:08:29.210Z,17.50
2023-01-29T08:10:57.695Z,14.87
2023-01-29T08:13:32.736Z,13.47
2023-01-29T08:16:10.051Z,10.80
2023-01-29T08:18:38.924Z,12.53
2023-01-29T08:21:14.109Z,15.40
2023-01-29T08:23:42.453Z,13.60
2023-01-29T08:26:14.321Z,13.27
2023-01-29T08:29:02.036Z,14.07
2023-01-29T08:31:35.886Z,16.27
2023-01-29T08:34:05.053Z,15.80
2023-01-29T08:36:45.997Z,12.40
2023-01-29T08:39:18.729Z,13.47
2023-01-29T08:41:54.618Z,11.90
2023-01-29T08:44:30.451Z,16.83
2023-01-29T08:49:57.929Z,11.30
2023-01-29T08:52:26.874Z,13.37
2023-01-29T08:54:58.430Z,15.60
2023-01-29T08:57:28.934Z,14.50
2023-01-29T09:00:00.688Z,16.47
2023-01-29T09:02:44.716Z,10.23
2023-01-29T09:05:12.486Z,10.47
2023-01-29T09:07:40.592Z,11.63
2023-01-29T09:10:09.445Z,9.97
2023-01-29T09:12:38.120Z,11.53
2023-01-29T09:15:06.770Z,12.27
2023-01-29T09:17:40.984Z,12.10
2023-01-29T09:20:14.756Z,13.40
2023-01-29T09:22:46.279Z,14.97
2023-01-29T09:25:18.624Z,12.20
2023-01-29T09:27:47.084Z,11.50
2023-01-29T09:30:21.910Z,10.10
2023-01-29T09:32:53.658Z,9.83
2023-01-29T09:35:25.254Z,11.63
2023-01-29T09:40:53.923Z,11.67
2023-01-29T09:43:56.056Z,11.07
2023-01-29T09:46:34.830Z,9.90
2023-01-29T09:49:12.111Z,12.83
2023-01-29T09:51:49.540Z,14.27
2023-01-29T09:54:26.007Z,13.17
2023-01-29T09:56:57.976Z,13.43
2023-01-29T09:59:30.575Z,13.77
2023-01-29T10:02:10.947Z,15.33
2023-01-29T10:05:04.378Z,13.17
2023-01-29T10:07:52.950Z,11.13
2023-01-29T10:10:34.544Z,13.77
2023-01-29T10:13:12.228Z,14.90
2023-01-29T10:16:03.130Z,14.70
2023-01-29T10:18:47.810Z,14.07
2023-01-29T10:21:53.713Z,13.03
2023-01-29T10:24:37.682Z,11.77
2023-01-29T10:27:17.713Z,11.83
2023-01-29T10:29:48.487Z,8.03
2023-01-29T10:32:24.937Z,12.17
2023-01-29T10:35:08.087Z,14.10
2023-01-29T10:37:44.224Z,11.90
2023-01-29T10:40:23.893Z,10.23
2023-01-29T10:46:17.167Z,12.53
2023-01-29T10:49:06.599Z,10.87
2023-01-29T10:51:53.291Z,11.83
2023-01-29T10:54:37.855Z,13.50
2023-01-29T10:57:15.850Z,10.63
2023-01-29T11:00:07.471Z,9.77
2023-01-29T11:02:35.483Z,11.17
2023-01-29T11:05:03.499Z,11.70
2023-01-29T11:07:32.056Z,9.77
2023-01-29T11:10:08.697Z,10.30
2023-01-29T11:12:39.721Z,12.37
2023-01-29T11:15:17.031Z,13.47
2023-01-29T11:18:03.885Z,12.70
2023-01-29T11:20:35.232Z,13.77
2023-01-29T11:23:03.475Z,12.10
2023-01-29T11:25:32.952Z,11.60
2023-01-29T11:28:05.195Z,11.67
2023-01-29T11:30:38.373Z,12.47
2023-01-29T11:33:11.170Z,13.10
2023-01-29T11:35:39.082Z,12.47
2023-01-29T11:38:20.324Z,12.17
2023-01-29T11:40:48.597Z,9.23
2023-01-29T11:43:26.881Z,11.23
2023-01-29T11:46:06.997Z,13.97
2023-01-29T11:48:42.390Z,11.87
2023-01-29T11:51:22.320Z,12.33
2023-01-29T11:53:53.742Z,12.97
2023-01-29T11:56:29.983Z,8.43
2023-01-29T11:59:02.584Z,13.77
2023-01-29T12:01:37.718Z,10.87
2023-01-29T12:04:17.459Z,13.87
2023-01-29T12:06:49.015Z,9.87
2023-01-29T12:09:19.472Z,13.23
2023-01-29T12:11:52.586Z,10.60
2023-01-29T12:14:33.945Z,11.83
2023-01-29T12:17:09.075Z,11.80
2023-01-29T12:19:43.679Z,11.23
2023-01-29T12:22:18.307Z,14.00
2023-01-29T12:24:55.913Z,12.90
2023-01-29T12:27:27.792Z,11.10
2023-01-29T12:30:05.243Z,11.33
2023-01-29T12:32:44.216Z,12.23
2023-01-29T12:35:18.385Z,13.00
2023-01-29T12:37:55.057Z,12.50
2023-01-29T12:40:27.235Z,15.40
2023-01-29T12:43:01.563Z,12.00
2023-01-29T12:45:33.105Z,13.57
2023-01-29T12:48:07.203Z,13.30
2023-01-29T12:50:37.136Z,12.00
2023-01-29T12:53:17.077Z,9.00
2023-01-29T12:55:48.129Z,15.33
2023-01-29T12:58:17.582Z,12.83
2023-01-29T13:00:49.509Z,13.87
2023-01-29T13:03:22.211Z,15.90
2023-01-29T13:05:52.916Z,12.67
2023-01-29T13:08:25.499Z,8.70
2023-01-29T13:10:55.766Z,10.83
2023-01-29T13:13:29.753Z,10.83
2023-01-29T13:16:03.501Z,12.53
2023-01-29T13:18:41.850Z,13.33
2023-01-29T13:21:14.475Z,13.40
2023-01-29T13:23:47.019Z,7.20
2023-01-29T13:26:18.756Z,12.30
2023-01-29T13:28:47.265Z,14.07
2023-01-29T13:31:24.909Z,13.30
2023-01-29T13:33:56.207Z,14.70
2023-01-29T13:36:28.925Z,12.60
2023-01-29T13:39:03.715Z,12.90
2023-01-29T13:41:36.705Z,12.70
2023-01-29T13:44:09.118Z,13.20
2023-01-29T13:46:42.684Z,12.47
2023-01-29T13:49:29.378Z,11.10
2023-01-29T13:51:58.400Z,12.40
2023-01-29T13:54:27.851Z,12.07
2023-01-29T13:57:01.796Z,11.53
2023-01-29T13:59:53.035Z,14.63
2023-01-29T14:02:25.385Z,12.33
2023-01-29T14:04:53.393Z,13.47
2023-01-29T14:07:50.780Z,12.47
2023-01-29T14:10:21.846Z,7.60
2023-01-29T14:12:54.238Z,9.70
2023-01-29T14:15:33.061Z,10.40
2023-01-29T14:18:14.666Z,13.10
2023-01-29T14:20:52.312Z,9.67
2023-01-29T14:23:28.459Z,9.67
2023-01-29T14:25:57.138Z,10.87
2023-01-29T14:28:27.380Z,11.80
2023-01-29T14:30:56.230Z,12.37
2023-01-29T14:33:29.346Z,9.03
2023-01-29T14:35:58.640Z,11.90
2023-01-29T14:38:29.528Z,11.03
2023-01-29T14:41:08.526Z,11.83
2023-01-29T14:43:36.303Z,8.77
2023-01-29T14:46:40.469Z,10.77
2023-01-29T14:49:10.356Z,12.77
2023-01-29T14:51:42.525Z,11.50
2023-01-29T14:54:19.973Z,14.13
2023-01-29T14:56:57.363Z,15.10
2023-01-29T14:59:30.755Z,13.93
2023-01-29T15:02:03.226Z,11.93
2023-01-29T15:04:39.664Z,12.60
2023-01-29T15:07:18.866Z,11.97
2023-01-29T15:09:49.293Z,13.17
2023-01-29T15:12:26.465Z,10.70
2023-01-29T15:15:04.340Z,12.50
2023-01-29T15:17:37.417Z,13.47
2023-01-29T15:20:28.087Z,16.10
2023-01-29T15:22:55.694Z,15.93
2023-01-29T15:25:23.717Z,15.47
2023-01-29T15:27:52.232Z,12.83
2023-01-29T15:30:23.395Z,16.20
2023-01-29T15:32:52.445Z,15.93
2023-01-29T15:35:29.085Z,17.53
2023-01-29T15:38:01.825Z,12.60
2023-01-29T15:40:29.904Z,15.00
2023-01-29T15:42:57.656Z,12.60
2023-01-29T15:45:29.139Z,14.03
2023-01-29T15:48:02.199Z,16.00
2023-01-29T15:50:35.410Z,15.70
2023-01-29T15:53:07.639Z,11.27
2023-01-29T15:55:36.848Z,16.73
2023-01-29T15:58:05.362Z,14.57
2023-01-29T16:00:34.515Z,14.80
2023-01-29T16:03:14.588Z,16.20
2023-01-29T16:05:44.143Z,13.63
2023-01-29T16:08:15.640Z,16.07
2023-01-29T16:10:45.049Z,11.30
2023-01-29T16:13:21.857Z,12.50
2023-01-29T16:15:56.820Z,16.13
2023-01-29T16:18:32.392Z,15.03
2023-01-29T16:21:08.709Z,14.23
2023-01-29T16:23:41.392Z,11.40
2023-01-29T16:26:13.740Z,14.87
2023-01-29T16:28:44.761Z,15.37
2023-01-29T16:31:15.312Z,18.90
2023-01-29T16:33:45.297Z,16.73
2023-01-29T16:36:18.604Z,12.50
2023-01-29T16:38:50.392Z,16.97
2023-01-29T16:41:31.116Z,12.70
2023-01-29T16:44:00.021Z,12.30
2023-01-29T16:46:34.018Z,14.20
2023-01-29T16:49:02.116Z,16.00
2023-01-29T16:51:36.969Z,10.97
2023-01-29T16:54:09.097Z,15.13
2023-01-29T16:56:38.953Z,12.43
2023-01-29T16:59:07.828Z,10.93
2023-01-29T17:01:37.158Z,15.73
2023-01-29T17:04:09.830Z,13.27
2023-01-29T17:06:41.403Z,12.37
2023-01-29T17:09:09.591Z,11.03
2023-01-29T17:11:39.474Z,12.43
2023-01-29T17:14:09.039Z,12.90
2023-01-29T17:16:50.499Z,13.97
2023-01-29T17:19:22.829Z,15.17
2023-01-29T17:21:52.042Z,17.13
2023-01-29T17:24:19.724Z,13.83
2023-01-29T17:26:47.360Z,18.10
2023-01-29T17:29:16.388Z,12.97
2023-01-29T17:31:44.388Z,13.33
2023-01-29T17:34:14.234Z,14.83
2023-01-29T17:36:42.105Z,10.03
2023-01-29T17:39:18.622Z,15.27
2023-01-29T17:41:49.421Z,16.50
2023-01-29T17:44:17.103Z,14.30
2023-01-29T17:46:46.076Z,14.30
2023-01-29T17:49:23.353Z,17.23
2023-01-29T17:51:51.553Z,9.67
2023-01-29T17:54:21.545Z,12.87
2023-01-29T17:56:49.699Z,8.67
2023-01-29T17:59:19.233Z,15.57
2023-01-29T18:01:47.240Z,15.10
2023-01-29T18:04:15.405Z,18.90
2023-01-29T18:06:45.275Z,11.23
2023-01-29T18:09:18.690Z,13.07
2023-01-29T18:11:48.489Z,12.57
2023-01-29T18:14:19.872Z,15.27
2023-01-29T18:16:47.849Z,19.30
2023-01-29T18:19:21.474Z,11.77
2023-01-29T18:21:49.601Z,13.63
2023-01-29T18:24:17.745Z,15.13
2023-01-29T18:26:46.897Z,14.17
2023-01-29T18:29:14.646Z,13.97
2023-01-29T18:31:42.378Z,12.47
2023-01-29T18:34:10.350Z,16.87
2023-01-29T18:36:38.497Z,15.47
2023-01-29T18:39:06.281Z,11.60
2023-01-29T18:41:34.754Z,10.83
2023-01-29T18:44:03.835Z,14.30
2023-01-29T18:46:31.583Z,14.57
2023-01-29T18:48:59.315Z,16.10
2023-01-29T18:51:27.111Z,15.73
2023-01-29T18:53:55.028Z,15.20
2023-01-29T18:56:22.751Z,13.03
2023-01-29T18:58:55.362Z,16.47
2023-01-29T19:01:24.986Z,13.87
2023-01-29T19:03:52.797Z,15.47
2023-01-29T19:06:20.586Z,14.33
2023-01-29T19:08:48.326Z,15.57
2023-01-29T19:11:15.952Z,10.53
2023-01-29T19:13:46.011Z,10.83
2023-01-29T19:16:14.173Z,11.80
2023-01-29T19:18:43.604Z,9.23
2023-01-29T19:21:14.017Z,10.43
2023-01-29T19:23:42.464Z,10.67
2023-01-29T19:26:11.771Z,10.20
2023-01-29T19:28:39.629Z,11.73
2023-01-29T19:31:07.892Z,7.80
2023-01-29T19:33:36.361Z,10.67
2023-01-29T19:36:06.359Z,8.43
2023-01-29T19:38:37.891Z,8.03
2023-01-29T19:41:06.198Z,11.73
2023-01-29T19:43:34.209Z,11.00
2023-01-29T19:46:03.388Z,11.20
2023-01-29T19:48:31.275Z,10.77
2023-01-29T19:51:00.374Z,9.50
2023-01-29T19:53:34.176Z,9.87
2023-01-29T19:56:03.698Z,11.03
2023-01-29T19:58:32.176Z,11.17
2023-01-29T20:01:04.122Z,9.80
2023-01-29T20:03:32.583Z,11.30
2023-01-29T20:06:03.725Z,11.70
2023-01-29T20:08:35.039Z,8.07
2023-01-29T20:11:05.444Z,10.10
2023-01-29T20:13:33.921Z,8.23
2023-01-29T20:16:03.821Z,8.13
2023-01-29T20:18:31.906Z,10.17
2023-01-29T20:21:00.143Z,8.47
2023-01-29T20:23:37.726Z,11.73
2023-01-29T20:26:08.556Z,9.30
2023-01-29T20:28:36.630Z,9.33
2023-01-29T20:31:05.328Z,11.60
2023-01-29T20:33:33.664Z,7.60
2023-01-29T20:36:06.242Z,11.60
2023-01-29T20:38:34.621Z,9.23
2023-01-29T20:41:09.112Z,9.87
2023-01-29T20:43:37.101Z,9.27
2023-01-29T20:46:05.868Z,8.50
2023-01-29T20:48:33.867Z,8.53
2023-01-29T20:51:06.356Z,6.20
2023-01-29T20:53:34.020Z,10.30
2023-01-29T20:56:04.173Z,9.57
2023-01-29T20:58:33.336Z,12.27
2023-01-29T21:01:01.312Z,12.27
2023-01-29T21:03:28.955Z,13.27
2023-01-29T21:05:58.929Z,7.80
2023-01-29T21:08:26.502Z,6.43
2023-01-29T21:10:54.268Z,6.97
2023-01-29T21:13:21.841Z,6.70
2023-01-29T21:15:51.839Z,9.70
2023-01-29T21:18:19.495Z,12.37
2023-01-29T21:20:49.542Z,7.13
2023-01-29T21:23:17.189Z,12.23
2023-01-29T21:25:45.168Z,9.70
2023-01-29T21:28:13.400Z,8.57
2023-01-29T21:30:41.112Z,11.67
2023-01-29T21:33:10.134Z,11.67
2023-01-29T21:35:38.348Z,8.90
2023-01-29T21:38:06.324Z,9.07
2023-01-29T21:40:34.363Z,9.90
2023-01-29T21:43:13.159Z,10.67
2023-01-29T21:45:41.486Z,7.43
2023-01-29T21:48:11.603Z,7.50
2023-01-29T21:50:39.943Z,11.37
2023-01-29T21:53:07.759Z,9.60
2023-01-29T21:55:35.429Z,9.23
2023-01-29T21:58:04.183Z,7.63
2023-01-29T22:00:31.995Z,7.90
2023-01-29T22:02:59.764Z,8.83
2023-01-29T22:05:29.228Z,8.97
2023-01-29T22:07:57.098Z,10.17
2023-01-29T22:10:25.044Z,10.27
2023-01-29T22:12:52.845Z,11.50
2023-01-29T22:15:22.500Z,13.37
2023-01-29T22:17:51.121Z,11.53
2023-01-29T22:20:19.482Z,12.27
2023-01-29T22:22:48.718Z,9.70
2023-01-29T22:25:19.835Z,11.43
2023-01-29T22:27:47.446Z,11.77
2023-01-29T22:30:15.349Z,10.83
2023-01-29T22:32:43.166Z,8.33
2023-01-29T22:35:10.860Z,10.17
2023-01-29T22:37:38.468Z,13.30
2023-01-29T22:40:08.919Z,11.67
2023-01-29T22:42:36.521Z,9.73
2023-01-29T22:45:04.453Z,10.53
2023-01-29T22:47:33.487Z,11.97
2023-01-29T22:50:01.039Z,10.93
2023-01-29T22:52:38.490Z,10.70
2023-01-29T22:55:11.861Z,12.87
2023-01-29T22:57:40.098Z,12.13
2023-01-29T23:00:11.588Z,12.40
2023-01-29T23:02:39.213Z,12.40
2023-01-29T23:05:07.798Z,12.80
2023-01-29T23:07:35.457Z,10.60
2023-01-29T23:10:03.304Z,13.03
2023-01-29T23:12:32.251Z,9.30
2023-01-29T23:15:00.356Z,11.40
2023-01-29T23:17:28.206Z,8.27
2023-01-29T23:19:55.866Z,12.43
2023-01-29T23:22:23.587Z,11.90
2023-01-29T23:24:51.518Z,12.90
2023-01-29T23:27:18.329Z,7.30
2023-01-29T23:29:49.019Z,13.77
2023-01-29T23:32:21.246Z,11.17
2023-01-29T23:34:48.991Z,7.70
2023-01-29T23:37:16.823Z,10.37
2023-01-29T23:39:44.446Z,12.30
2023-01-29T23:42:12.375Z,11.93
2023-01-29T23:44:40.930Z,14.17
2023-01-29T23:47:10.588Z,12.43
2023-01-29T23:49:38.270Z,12.83
2023-01-29T23:52:07.678Z,10.37
2023-01-29T23:54:35.378Z,11.57
2023-01-29T23:57:03.093Z,11.93
2023-01-29T23:59:30.682Z,11.67
